createdAt,value
2023-02-06T00:01:51.773Z,-2.32
2023-02-06T00:04:21.057Z,-2.32
2023-02-06T00:06:52.198Z,-2.32
2023-02-06T00:09:21.118Z,-2.33
2023-02-06T00:11:50.881Z,-2.33
2023-02-06T00:14:20.657Z,-2.33
2023-02-06T00:17:10.380Z,-2.33
2023-02-06T00:19:38.995Z,-2.33
2023-02-06T00:22:09.490Z,-2.33
2023-02-06T00:24:38.072Z,-2.32
2023-02-06T00:27:08.746Z,-2.33
2023-02-06T00:29:38.055Z,-2.33
2023-02-06T00:32:07.442Z,-2.34
2023-02-06T00:34:40.802Z,-2.35
2023-02-06T00:37:11.003Z,-2.37
2023-02-06T00:39:40.587Z,-2.38
2023-02-06T00:42:11.289Z,-2.36
2023-02-06T00:44:42.789Z,-2.35
2023-02-06T00:47:11.351Z,-2.38
2023-02-06T00:49:40.824Z,-2.41
2023-02-06T00:52:10.327Z,-2.43
2023-02-06T00:54:39.571Z,-2.45
2023-02-06T00:57:09.951Z,-2.47
2023-02-06T00:59:39.267Z,-2.47
2023-02-06T01:02:09.517Z,-2.49
2023-02-06T01:04:39.918Z,-2.53
2023-02-06T01:07:10.441Z,-2.54
2023-02-06T01:09:44.256Z,-2.55
2023-02-06T01:12:12.828Z,-2.56
2023-02-06T01:14:43.115Z,-2.56
2023-02-06T01:17:14.245Z,-2.57
2023-02-06T01:19:44.474Z,-2.56
2023-02-06T01:22:15.411Z,-2.54
2023-02-06T01:24:47.794Z,-2.53
2023-02-06T01:27:19.127Z,-2.52
2023-02-06T01:29:48.514Z,-2.51
2023-02-06T01:32:18.020Z,-2.52
2023-02-06T01:34:48.407Z,-2.54
2023-02-06T01:37:17.932Z,-2.55
2023-02-06T01:39:47.997Z,-2.56
2023-02-06T01:42:18.512Z,-2.58
2023-02-06T01:44:48.661Z,-2.59
2023-02-06T01:47:17.589Z,-2.61
2023-02-06T01:49:50.862Z,-2.64
2023-02-06T01:52:24.424Z,-2.65
2023-02-06T01:54:56.967Z,-2.64
2023-02-06T01:57:27.023Z,-2.61
2023-02-06T02:00:00.378Z,-2.58
2023-02-06T02:02:29.941Z,-2.59
2023-02-06T02:05:01.517Z,-2.59
2023-02-06T02:07:47.508Z,-2.60
2023-02-06T02:10:18.257Z,-2.60
2023-02-06T02:12:49.168Z,-2.62
2023-02-06T02:15:18.095Z,-2.64
2023-02-06T02:18:02.905Z,-2.66
2023-02-06T02:20:49.759Z,-2.69
2023-02-06T02:23:43.119Z,-2.69
2023-02-06T02:26:39.797Z,-2.67
2023-02-06T02:29:27.698Z,-2.67
2023-02-06T02:32:03.063Z,-2.68
2023-02-06T02:35:08.609Z,-2.69
2023-02-06T02:37:48.442Z,-2.75
2023-02-06T02:40:38.797Z,-2.78
2023-02-06T02:43:23.866Z,-2.80
2023-02-06T02:45:59.788Z,-2.82
2023-02-06T02:48:31.174Z,-2.85
2023-02-06T02:51:02.803Z,-2.88
2023-02-06T02:53:35.043Z,-2.89
2023-02-06T02:56:16.458Z,-2.92
2023-02-06T02:58:49.488Z,-2.96
2023-02-06T03:01:20.882Z,-2.98
2023-02-06T03:03:50.834Z,-3.00
2023-02-06T03:06:35.154Z,-3.01
2023-02-06T03:09:20.027Z,-3.06
2023-02-06T03:12:04.060Z,-3.13
2023-02-06T03:14:35.047Z,-3.18
2023-02-06T03:17:06.238Z,-3.20
2023-02-06T03:19:39.275Z,-3.23
2023-02-06T03:22:08.249Z,-3.25
2023-02-06T03:24:39.382Z,-3.27
2023-02-06T03:27:13.402Z,-3.30
2023-02-06T03:29:43.566Z,-3.34
2023-02-06T03:32:26.574Z,-3.37
2023-02-06T03:35:17.947Z,-3.40
2023-02-06T03:37:49.396Z,-3.42
2023-02-06T03:40:35.058Z,-3.43
2023-02-06T03:43:05.115Z,-3.45
2023-02-06T03:45:38.966Z,-3.46
2023-02-06T03:48:11.820Z,-3.47
2023-02-06T03:50:43.545Z,-3.48
2023-02-06T03:53:12.979Z,-3.48
2023-02-06T03:55:41.881Z,-3.48
2023-02-06T03:58:13.661Z,-3.47
2023-02-06T04:00:43.348Z,-3.46
2023-02-06T04:03:13.386Z,-3.45
2023-02-06T04:05:44.066Z,-3.46
2023-02-06T04:08:17.401Z,-3.45
2023-02-06T04:10:46.929Z,-3.47
2023-02-06T04:13:17.679Z,-3.47
2023-02-06T04:15:46.139Z,-3.46
2023-02-06T04:18:14.646Z,-3.47
2023-02-06T04:20:48.041Z,-3.45
2023-02-06T04:23:17.269Z,-3.46
2023-02-06T04:25:47.101Z,-3.47
2023-02-06T04:28:17.470Z,-3.48
2023-02-06T04:30:48.752Z,-3.48
2023-02-06T04:33:18.700Z,-3.49
2023-02-06T04:35:49.309Z,-3.50
2023-02-06T04:38:19.477Z,-3.52
2023-02-06T04:40:49.399Z,-3.54
2023-02-06T04:43:19.540Z,-3.54
2023-02-06T04:45:48.380Z,-3.54
2023-02-06T04:48:18.658Z,-3.54
2023-02-06T04:50:51.343Z,-3.54
2023-02-06T04:53:23.008Z,-3.54
2023-02-06T04:55:52.803Z,-3.55
2023-02-06T04:58:21.836Z,-3.59
2023-02-06T05:00:51.371Z,-3.63
2023-02-06T05:03:20.634Z,-3.65
2023-02-06T05:05:53.620Z,-3.66
2023-02-06T05:08:25.488Z,-3.66
2023-02-06T05:10:55.520Z,-3.67
2023-02-06T05:13:26.968Z,-3.68
2023-02-06T05:15:55.798Z,-3.69
2023-02-06T05:18:26.324Z,-3.68
2023-02-06T05:20:55.016Z,-3.67
2023-02-06T05:23:24.171Z,-3.65
2023-02-06T05:25:55.583Z,-3.64
2023-02-06T05:28:25.974Z,-3.66
2023-02-06T05:30:55.516Z,-3.71
2023-02-06T05:33:31.055Z,-3.80
2023-02-06T05:36:06.834Z,-3.85
2023-02-06T05:38:36.668Z,-3.86
2023-02-06T05:41:08.453Z,-3.87
2023-02-06T05:43:38.559Z,-3.88
2023-02-06T05:46:09.236Z,-3.87
2023-02-06T05:48:41.467Z,-3.86
2023-02-06T05:51:11.021Z,-3.85
2023-02-06T05:53:40.260Z,-3.87
2023-02-06T05:56:09.239Z,-3.88
2023-02-06T05:58:43.859Z,-3.89
2023-02-06T06:01:16.047Z,-3.89
2023-02-06T06:03:45.772Z,-3.92
2023-02-06T06:06:16.653Z,-3.98
2023-02-06T06:08:46.842Z,-4.01
2023-02-06T06:11:18.284Z,-4.02
2023-02-06T06:13:47.659Z,-4.03
2023-02-06T09:31:57.579Z,-2.20
2023-02-06T09:34:26.508Z,-1.81
2023-02-06T09:36:57.070Z,-1.71
2023-02-06T09:39:26.049Z,-1.67
2023-02-06T09:41:56.115Z,-1.77
2023-02-06T09:44:27.662Z,-1.80
2023-02-06T09:47:00.986Z,-1.73
2023-02-06T09:49:54.030Z,-1.67
2023-02-06T09:52:47.361Z,-1.65
2023-02-06T09:55:40.628Z,-1.77
2023-02-06T09:58:20.115Z,-1.64
2023-02-06T10:01:01.086Z,-1.22
2023-02-06T10:03:54.809Z,-0.54
2023-02-06T10:06:33.349Z,0.30
2023-02-06T10:09:18.090Z,0.73
2023-02-06T10:12:05.426Z,1.05
2023-02-06T10:14:57.564Z,1.03
2023-02-06T10:17:37.484Z,0.67
2023-02-06T10:20:15.480Z,0.52
2023-02-06T10:23:10.478Z,0.30
2023-02-06T10:26:12.816Z,0.10
2023-02-06T10:28:41.248Z,0.06
2023-02-06T10:31:26.228Z,0.08
2023-02-06T10:34:16.521Z,0.13
2023-02-06T10:37:15.577Z,0.16
2023-02-06T10:40:08.842Z,0.09
2023-02-06T10:43:18.892Z,-0.08
2023-02-06T10:46:02.628Z,-0.21
2023-02-06T10:48:38.475Z,-0.25
2023-02-06T10:51:18.864Z,-0.41
2023-02-06T10:53:52.263Z,-0.45
2023-02-06T10:56:40.585Z,-0.49
2023-02-06T10:59:30.385Z,-0.60
2023-02-06T11:02:03.189Z,-0.71
2023-02-06T11:04:35.980Z,-0.83
2023-02-06T11:07:09.386Z,-1.01
2023-02-06T11:09:38.115Z,-1.02
2023-02-06T11:12:30.836Z,-0.90
2023-02-06T11:15:01.978Z,-0.90
2023-02-06T11:17:32.135Z,-0.98
2023-02-06T11:20:18.340Z,-1.06
2023-02-06T11:22:52.682Z,-1.20
2023-02-06T11:25:30.558Z,-1.34
2023-02-06T11:28:00.462Z,-1.31
2023-02-06T11:30:31.109Z,-1.24
2023-02-06T11:33:05.272Z,-1.30
2023-02-06T11:35:47.744Z,-1.46
2023-02-06T11:38:22.128Z,-1.44
2023-02-06T11:41:19.467Z,-1.32
2023-02-06T11:43:52.274Z,-1.29
2023-02-06T11:46:24.979Z,-1.26
2023-02-06T11:48:56.293Z,-1.09
2023-02-06T11:51:25.087Z,-0.90
2023-02-06T11:54:03.414Z,-0.78
2023-02-06T11:56:32.262Z,-0.75
2023-02-06T11:59:07.125Z,-0.74
2023-02-06T12:01:42.997Z,-0.71
2023-02-06T12:04:25.999Z,-0.71
2023-02-06T12:07:01.138Z,-0.71
2023-02-06T12:09:30.028Z,-0.67
2023-02-06T12:12:10.053Z,-0.59
2023-02-06T12:14:51.646Z,-0.51
2023-02-06T12:17:25.852Z,-0.43
2023-02-06T12:20:04.469Z,-0.40
2023-02-06T12:22:37.168Z,-0.31
2023-02-06T12:25:06.047Z,-0.25
2023-02-06T12:27:39.536Z,-0.32
2023-02-06T12:30:28.084Z,-0.40
2023-02-06T12:33:23.538Z,-0.42
2023-02-06T12:36:12.844Z,-0.42
2023-02-06T12:39:00.191Z,-0.46
2023-02-06T12:41:57.669Z,-0.58
2023-02-06T12:44:39.766Z,-0.66
2023-02-06T12:47:20.208Z,-0.71
2023-02-06T12:50:02.304Z,-0.69
2023-02-06T12:52:41.010Z,-0.71
2023-02-06T12:55:34.759Z,-0.75
2023-02-06T12:58:03.409Z,-0.80
2023-02-06T13:00:50.068Z,-0.89
2023-02-06T13:03:35.430Z,-0.96
2023-02-06T13:06:22.046Z,-1.03
2023-02-06T13:08:56.205Z,-1.09
2023-02-06T13:11:36.426Z,-1.11
2023-02-06T13:14:27.946Z,-1.12
2023-02-06T13:16:59.460Z,-1.17
2023-02-06T13:19:31.061Z,-1.24
2023-02-06T13:22:20.365Z,-1.34
2023-02-06T13:24:50.104Z,-1.45
2023-02-06T13:27:23.940Z,-1.51
2023-02-06T13:29:54.110Z,-1.55
2023-02-06T13:32:22.952Z,-1.57
2023-02-06T13:35:00.838Z,-1.55
2023-02-06T13:37:46.797Z,-1.57
2023-02-06T13:40:30.607Z,-1.66
2023-02-06T13:43:22.368Z,-1.80
2023-02-06T13:45:57.821Z,-1.98
2023-02-06T13:48:39.172Z,-2.10
2023-02-06T13:51:13.902Z,-2.20
2023-02-06T13:53:45.353Z,-2.27
2023-02-06T13:56:52.277Z,-2.32
2023-02-06T13:59:36.712Z,-2.35
2023-02-06T14:02:12.160Z,-2.36
2023-02-06T14:04:41.943Z,-2.37
2023-02-06T14:07:22.433Z,-2.39
2023-02-06T14:10:37.344Z,-2.41
2023-02-06T14:13:48.281Z,-2.47
2023-02-06T14:16:35.283Z,-2.54
2023-02-06T14:19:18.281Z,-2.61
2023-02-06T14:22:04.416Z,-2.67
2023-02-06T14:25:04.785Z,-2.72
2023-02-06T14:28:04.294Z,-2.76
2023-02-06T14:31:14.182Z,-2.79
2023-02-06T14:34:07.114Z,-2.82
2023-02-06T14:36:51.310Z,-2.86
2023-02-06T14:39:43.167Z,-2.91
2023-02-06T14:42:15.710Z,-2.96
2023-02-06T14:44:45.194Z,-3.03
2023-02-06T14:47:20.815Z,-3.08
2023-02-06T14:49:49.297Z,-3.12
2023-02-06T14:52:21.544Z,-3.16
2023-02-06T14:54:50.359Z,-3.19
2023-02-06T14:57:22.863Z,-3.22
2023-02-06T15:00:02.751Z,-3.26
2023-02-06T15:02:36.214Z,-3.29
2023-02-06T15:05:05.462Z,-3.32
2023-02-06T15:07:36.682Z,-3.35
2023-02-06T15:10:07.806Z,-3.39
2023-02-06T15:12:37.114Z,-3.42
2023-02-06T15:15:15.898Z,-3.45
2023-02-06T15:17:44.401Z,-3.47
2023-02-06T15:20:20.760Z,-3.51
2023-02-06T15:22:49.369Z,-3.53
2023-02-06T15:25:26.960Z,-3.54
2023-02-06T15:28:04.731Z,-3.54
2023-02-06T15:30:34.666Z,-3.55
2023-02-06T15:33:03.594Z,-3.57
2023-02-06T15:35:34.153Z,-3.61
2023-02-06T15:38:07.193Z,-3.64
2023-02-06T15:40:39.143Z,-3.68
2023-02-06T15:43:07.623Z,-3.72
2023-02-06T15:45:39.793Z,-3.76
2023-02-06T15:48:25.879Z,-3.79
2023-02-06T15:51:04.327Z,-3.82
2023-02-06T15:53:34.611Z,-3.84
2023-02-06T15:56:04.975Z,-3.86
2023-02-06T15:58:33.495Z,-3.87
2023-02-06T16:01:02.379Z,-3.89
2023-02-06T16:03:31.478Z,-3.92
2023-02-06T16:06:00.267Z,-3.96
2023-02-06T16:08:32.594Z,-4.00
2023-02-06T16:11:05.873Z,-4.04
2023-02-06T16:13:34.377Z,-4.10
2023-02-06T16:16:11.996Z,-4.14
2023-02-06T16:18:40.607Z,-4.16
2023-02-06T16:21:18.549Z,-4.19
2023-02-06T16:24:00.346Z,-4.23
2023-02-06T16:26:32.791Z,-4.26
2023-02-06T16:29:30.176Z,-4.31
2023-02-06T16:32:03.127Z,-4.36
2023-02-06T16:34:39.161Z,-4.43
2023-02-06T16:37:27.775Z,-4.48
2023-02-06T16:39:56.178Z,-4.55
2023-02-06T16:42:26.561Z,-4.62
2023-02-06T16:44:59.551Z,-4.67
2023-02-06T16:47:28.068Z,-4.74
2023-02-06T16:49:56.544Z,-4.79
2023-02-06T16:52:26.804Z,-4.83
2023-02-06T16:54:56.166Z,-4.88
2023-02-06T16:57:38.345Z,-4.93
2023-02-06T17:00:30.819Z,-4.99
2023-02-06T17:02:59.749Z,-5.02
2023-02-06T17:05:28.492Z,-5.07
2023-02-06T17:07:57.149Z,-5.12
2023-02-06T17:10:26.655Z,-5.17
2023-02-06T17:12:55.188Z,-5.21
2023-02-06T17:15:23.641Z,-5.25
2023-02-06T17:17:54.597Z,-5.27
2023-02-06T17:20:36.498Z,-5.30
2023-02-06T17:23:06.142Z,-5.31
2023-02-06T17:25:36.622Z,-5.33
2023-02-06T17:28:07.679Z,-5.32
2023-02-06T17:30:37.331Z,-5.30
2023-02-06T17:33:06.194Z,-5.28
2023-02-06T17:35:37.039Z,-5.26
2023-02-06T17:38:06.368Z,-5.24
2023-02-06T17:40:36.179Z,-5.24
2023-02-06T17:43:04.965Z,-5.25
2023-02-06T17:45:35.368Z,-5.25
2023-02-06T17:48:04.032Z,-5.27
2023-02-06T17:50:32.945Z,-5.30
2023-02-06T17:53:01.530Z,-5.36
2023-02-06T17:55:29.935Z,-5.41
2023-02-06T17:57:58.399Z,-5.46
2023-02-06T18:00:27.057Z,-5.49
2023-02-06T18:02:56.029Z,-5.52
2023-02-06T18:05:24.899Z,-5.56
2023-02-06T18:07:53.701Z,-5.58
2023-02-06T18:10:22.881Z,-5.60
2023-02-06T18:12:51.724Z,-5.61
2023-02-06T18:15:22.197Z,-5.63
2023-02-06T18:17:50.875Z,-5.66
2023-02-06T18:20:19.270Z,-5.69
2023-02-06T18:22:48.159Z,-5.70
2023-02-06T18:25:16.805Z,-5.73
2023-02-06T18:27:46.118Z,-5.76
2023-02-06T18:30:15.252Z,-5.81
2023-02-06T18:32:43.876Z,-5.85
2023-02-06T18:35:12.483Z,-5.89
2023-02-06T18:37:40.882Z,-5.91
2023-02-06T18:40:09.740Z,-5.93
2023-02-06T18:42:51.622Z,-5.94
2023-02-06T18:45:24.981Z,-5.95
2023-02-06T18:47:53.526Z,-5.96
2023-02-06T18:50:22.198Z,-5.96
2023-02-06T18:52:52.203Z,-5.96
2023-02-06T18:55:21.081Z,-5.94
2023-02-06T18:57:49.935Z,-5.94
2023-02-06T19:00:19.998Z,-5.94
2023-02-06T19:02:48.684Z,-5.96
2023-02-06T19:05:17.157Z,-5.96
2023-02-06T19:07:51.462Z,-5.95
2023-02-06T19:10:20.272Z,-5.94
2023-02-06T19:12:49.260Z,-5.92
2023-02-06T19:15:17.812Z,-5.92
2023-02-06T19:17:46.453Z,-5.94
2023-02-06T19:20:14.975Z,-5.98
2023-02-06T19:22:43.884Z,-6.00
2023-02-06T19:25:14.533Z,-6.03
2023-02-06T19:27:43.816Z,-6.08
2023-02-06T19:30:13.362Z,-6.12
2023-02-06T19:32:42.061Z,-6.15
2023-02-06T19:35:12.125Z,-6.17
2023-02-06T19:37:40.790Z,-6.17
2023-02-06T19:40:09.722Z,-6.17
2023-02-06T19:42:39.664Z,-6.19
2023-02-06T19:45:08.238Z,-6.18
2023-02-06T19:47:36.930Z,-6.19
2023-02-06T19:50:05.958Z,-6.20
2023-02-06T19:52:35.456Z,-6.21
2023-02-06T19:55:04.342Z,-6.24
2023-02-06T19:57:33.033Z,-6.25
2023-02-06T20:00:01.384Z,-6.28
2023-02-06T20:02:31.433Z,-6.32
2023-02-06T20:05:02.154Z,-6.36
2023-02-06T20:07:31.813Z,-6.38
2023-02-06T20:10:00.257Z,-6.41
2023-02-06T20:12:30.611Z,-6.43
2023-02-06T20:15:00.613Z,-6.43
2023-02-06T20:17:29.357Z,-6.44
2023-02-06T20:19:59.901Z,-6.44
2023-02-06T20:22:28.864Z,-6.45
2023-02-06T20:24:57.337Z,-6.47
2023-02-06T20:27:26.588Z,-6.47
2023-02-06T20:29:55.108Z,-6.49
2023-02-06T20:32:24.542Z,-6.52
2023-02-06T20:34:52.825Z,-6.56
2023-02-06T20:37:21.667Z,-6.60
2023-02-06T20:39:49.989Z,-6.66
2023-02-06T20:42:19.586Z,-6.69
2023-02-06T20:44:50.405Z,-6.72
2023-02-06T20:47:18.842Z,-6.74
2023-02-06T20:49:47.273Z,-6.77
2023-02-06T20:52:15.970Z,-6.79
2023-02-06T20:54:44.321Z,-6.81
2023-02-06T20:57:12.692Z,-6.82
2023-02-06T20:59:41.391Z,-6.83
2023-02-06T21:02:11.165Z,-6.85
2023-02-06T21:04:39.801Z,-6.87
2023-02-06T21:07:08.437Z,-6.90
2023-02-06T21:09:36.835Z,-6.90
2023-02-06T21:12:05.354Z,-6.91
2023-02-06T21:14:35.549Z,-6.94
2023-02-06T21:17:04.538Z,-6.96
2023-02-06T21:19:32.804Z,-6.98
2023-02-06T21:22:01.248Z,-6.99
2023-02-06T21:24:30.084Z,-7.00
2023-02-06T21:26:58.803Z,-6.97
2023-02-06T21:29:27.138Z,-6.95
2023-02-06T21:32:11.143Z,-6.91
2023-02-06T21:34:40.887Z,-6.85
2023-02-06T21:37:09.784Z,-6.79
2023-02-06T21:39:39.043Z,-6.74
2023-02-06T21:42:08.485Z,-6.71
2023-02-06T21:44:39.457Z,-6.68
2023-02-06T21:47:10.091Z,-6.65
2023-02-06T21:49:40.528Z,-6.63
2023-02-06T21:52:09.034Z,-6.61
2023-02-06T21:54:38.041Z,-6.60
2023-02-06T21:57:06.550Z,-6.58
2023-02-06T21:59:38.031Z,-6.54
2023-02-06T22:02:07.368Z,-6.51
2023-02-06T22:04:35.632Z,-6.48
2023-02-06T22:07:04.208Z,-6.44
2023-02-06T22:09:32.649Z,-6.40
2023-02-06T22:12:01.812Z,-6.34
2023-02-06T22:14:30.685Z,-6.29
2023-02-06T22:16:59.192Z,-6.25
2023-02-06T22:19:27.650Z,-6.21
2023-02-06T22:21:55.994Z,-6.17
2023-02-06T22:24:24.781Z,-6.15
2023-02-06T22:26:54.573Z,-6.12
2023-02-06T22:29:23.944Z,-6.11
2023-02-06T22:31:52.252Z,-6.10
2023-02-06T22:34:20.940Z,-6.10
2023-02-06T22:36:51.290Z,-6.08
2023-02-06T22:39:19.919Z,-6.06
2023-02-06T22:41:49.391Z,-6.02
2023-02-06T22:44:18.754Z,-5.99
2023-02-06T22:46:52.515Z,-5.94
2023-02-06T22:49:21.352Z,-5.93
2023-02-06T22:51:50.833Z,-5.91
2023-02-06T22:54:19.344Z,-5.89
2023-02-06T22:56:47.966Z,-5.88
2023-02-06T22:59:21.436Z,-5.87
2023-02-06T23:01:50.528Z,-5.87
2023-02-06T23:04:19.732Z,-5.87
2023-02-06T23:06:48.651Z,-5.83
2023-02-06T23:09:22.575Z,-5.81
2023-02-06T23:11:51.938Z,-5.80
2023-02-06T23:14:20.872Z,-5.76
2023-02-06T23:16:51.118Z,-5.74
2023-02-06T23:19:19.846Z,-5.73
2023-02-06T23:21:49.594Z,-5.71
2023-02-06T23:24:18.084Z,-5.69
2023-02-06T23:26:48.245Z,-5.66
2023-02-06T23:29:18.030Z,-5.65
2023-02-06T23:31:47.502Z,-5.64
2023-02-06T23:34:16.784Z,-5.62
2023-02-06T23:36:45.305Z,-5.62
2023-02-06T23:39:13.605Z,-5.59
2023-02-06T23:41:42.734Z,-5.55
2023-02-06T23:44:11.172Z,-5.51
2023-02-06T23:46:39.620Z,-5.48
2023-02-06T23:49:08.544Z,-5.47
2023-02-06T23:51:38.093Z,-5.45
2023-02-06T23:54:07.582Z,-5.41
2023-02-06T23:56:36.877Z,-5.39
2023-02-06T23:59:05.802Z,-5.38
